Time;durP1;ratioP1;P1;durP2;ratioP2;P2;SDS_P1;SDS_P2;PMS_P1;PMS_P2;Temp;Humidity;BMP_temperature;BMP_pressure;BME280_temperature;BME280_humidity;BME280_pressure;Samples;Min_cycle;Max_cycle;Signal;HPM_P1;HPM_P2
2023/07/13 00:02:23;;;;;;;10.93;9.93;;;;;;;27.91;65.62;99515.06;4953013;29;20203;-70
2023/07/13 00:04:50;;;;;;;10.40;9.30;;;;;;;27.90;64.94;99516.19;4952482;29;20259;-70
2023/07/13 00:07:19;;;;;;;5.80;4.60;;;;;;;27.91;53.61;99526.00;4972775;28;20276;-71
2023/07/13 00:09:48;;;;;;;6.40;4.57;;;;;;;27.90;45.00;99535.31;4975944;28;20235;-71
2023/07/13 00:12:27;;;;;;;5.57;5.17;;;;;;;27.93;48.12;99535.50;4975551;28;20668;-71
2023/07/13 00:14:54;;;;;;;7.17;6.57;;;;;;;27.98;50.59;99518.19;4936992;29;20203;-71
2023/07/13 00:17:20;;;;;;;7.90;7.13;;;;;;;28.00;52.59;99518.69;4936818;29;20201;-71
2023/07/13 00:19:47;;;;;;;8.10;7.43;;;;;;;28.01;53.73;99526.56;4937080;29;20197;-71
2023/07/13 00:22:14;;;;;;;7.40;6.83;;;;;;;28.04;54.45;99514.22;4953671;29;20228;-71
2023/07/13 00:24:41;;;;;;;9.53;6.87;;;;;;;28.04;50.49;99522.41;4956057;28;20200;-71
2023/07/13 00:27:10;;;;;;;10.57;8.57;;;;;;;28.06;59.25;99509.28;4955254;28;20368;-71
2023/07/13 00:29:37;;;;;;;10.87;7.63;;;;;;;28.06;55.21;99506.53;4955791;29;20192;-71
2023/07/13 00:32:05;;;;;;;8.73;7.97;;;;;;;28.07;56.52;99508.16;4956331;29;20196;-71
2023/07/13 00:34:32;;;;;;;10.83;9.33;;;;;;;28.03;55.18;99512.59;4956093;29;20208;-70
2023/07/13 00:36:59;;;;;;;7.03;6.60;;;;;;;28.01;53.38;99507.44;4956231;29;20574;-70
2023/07/13 00:39:26;;;;;;;9.67;8.73;;;;;;;28.06;55.23;99506.53;4956041;29;20204;-71
2023/07/13 00:41:53;;;;;;;9.47;8.33;;;;;;;28.06;55.11;99503.81;4955582;29;20188;-71
2023/07/13 00:44:23;;;;;;;8.60;8.00;;;;;;;28.06;56.02;99501.06;4955622;29;20235;-71
2023/07/13 00:46:50;;;;;;;7.57;6.97;;;;;;;28.07;54.29;99491.75;4955704;29;20215;-72
2023/07/13 00:49:20;;;;;;;9.10;8.27;;;;;;;28.08;55.75;99493.34;4955317;29;20247;-73
2023/07/13 00:51:51;;;;;;;9.10;8.40;;;;;;;28.05;59.61;99488.53;4954635;29;20192;-72
2023/07/13 00:54:23;;;;;;;8.73;7.97;;;;;;;28.04;61.64;99487.72;4955661;29;21023;-71
2023/07/13 00:56:53;;;;;;;9.60;8.70;;;;;;;28.02;62.29;99483.69;4955404;29;20255;-71
2023/07/13 00:59:23;;;;;;;10.70;8.67;;;;;;;28.01;63.49;99487.53;4955083;29;20196;-72
2023/07/13 01:01:50;;;;;;;9.13;8.43;;;;;;;27.94;63.75;99496.16;4956101;28;20184;-72
2023/07/13 01:04:17;;;;;;;8.67;7.97;;;;;;;27.91;64.01;99494.06;4954630;28;20575;-71
2023/07/13 01:06:46;;;;;;;9.63;8.80;;;;;;;27.87;63.39;99492.22;4968822;28;20328;-71
2023/07/13 01:09:15;;;;;;;8.73;8.13;;;;;;;27.82;63.49;99484.16;4974637;28;20235;-71
2023/07/13 01:11:42;;;;;;;9.80;8.97;;;;;;;27.78;63.55;99474.94;4974649;28;20206;-71
2023/07/13 01:14:09;;;;;;;9.73;9.03;;;;;;;27.76;63.64;99479.91;4974510;28;20270;-70
2023/07/13 01:16:39;;;;;;;7.80;7.30;;;;;;;27.70;60.33;99479.22;4970626;28;20243;-70
2023/07/13 01:19:18;;;;;;;8.43;7.67;;;;;;;27.73;60.68;99483.25;4954422;28;20196;-70
2023/07/13 01:21:51;;;;;;;8.23;7.43;;;;;;;27.71;59.88;99483.56;4955382;29;20189;-71
2023/07/13 01:24:18;;;;;;;8.87;7.77;;;;;;;27.73;60.37;99481.31;4955245;29;20188;-71
2023/07/13 01:26:44;;;;;;;8.10;7.60;;;;;;;27.75;61.08;99481.00;4955221;29;20204;-70
2023/07/13 01:29:11;;;;;;;8.97;8.07;;;;;;;27.77;61.76;99482.31;4955491;29;20272;-70
2023/07/13 01:31:38;;;;;;;8.43;7.80;;;;;;;27.76;59.29;99482.66;4954206;29;20204;-70
2023/07/13 01:34:04;;;;;;;9.40;8.57;;;;;;;27.76;61.09;99475.25;4954792;29;20200;-71
2023/07/13 01:36:31;;;;;;;8.80;8.00;;;;;;;27.75;61.97;99478.28;4954250;29;20650;-71
2023/07/13 01:38:59;;;;;;;10.40;8.93;;;;;;;27.71;63.15;99472.63;4954815;29;20196;-70
2023/07/13 01:41:26;;;;;;;10.90;8.20;;;;;;;27.63;63.12;99475.28;4954698;29;20600;-71
2023/07/13 01:43:52;;;;;;;9.93;8.50;;;;;;;27.57;62.77;99482.00;4954905;29;20200;-71
2023/07/13 01:46:19;;;;;;;9.83;8.00;;;;;;;27.55;61.69;99482.28;4953961;29;20235;-71
2023/07/13 01:48:46;;;;;;;10.37;8.57;;;;;;;27.52;63.08;99482.91;4954255;29;20223;-71
2023/07/13 01:51:13;;;;;;;11.00;9.07;;;;;;;27.53;63.00;99479.06;4954601;29;20266;-70
2023/07/13 01:53:40;;;;;;;9.60;8.50;;;;;;;27.55;63.47;99476.84;4954355;29;20196;-70
2023/07/13 01:56:08;;;;;;;8.87;8.20;;;;;;;27.52;63.64;99479.38;4954743;29;20633;-70
2023/07/13 01:58:34;;;;;;;12.70;8.67;;;;;;;27.49;64.08;99479.97;4954360;29;20204;-69
2023/07/13 02:01:01;;;;;;;11.80;8.77;;;;;;;27.44;64.53;99488.28;4953563;29;20274;-70
2023/07/13 02:03:28;;;;;;;17.33;9.47;;;;;;;27.42;64.38;99493.22;4954425;29;20196;-70
2023/07/13 02:05:54;;;;;;;9.20;8.50;;;;;;;27.41;64.11;99494.34;4960969;28;20261;-71
2023/07/13 02:08:21;;;;;;;9.97;8.33;;;;;;;27.42;63.44;99495.94;4973209;28;20283;-70
2023/07/13 02:10:48;;;;;;;9.63;8.73;;;;;;;27.45;63.13;99500.81;4973762;28;20686;-70
2023/07/13 02:13:16;;;;;;;9.40;8.57;;;;;;;27.47;61.79;99501.28;4973482;28;20737;-70
2023/07/13 02:15:42;;;;;;;8.90;8.07;;;;;;;27.49;61.79;99507.28;4960076;28;20251;-69
2023/07/13 02:18:09;;;;;;;8.00;7.50;;;;;;;27.53;60.92;99508.28;4953664;29;20621;-71
2023/07/13 02:20:36;;;;;;;12.57;7.80;;;;;;;27.51;62.84;99505.84;4954053;29;20199;-71
2023/07/13 02:23:03;;;;;;;15.40;7.93;;;;;;;27.51;63.40;99505.84;4953732;29;20200;-71
2023/07/13 02:25:29;;;;;;;10.17;8.20;;;;;;;27.49;63.69;99507.28;4953494;29;20192;-72
2023/07/13 02:27:56;;;;;;;11.33;8.90;;;;;;;27.41;63.98;99508.81;4953785;29;20719;-72
2023/07/13 02:30:25;;;;;;;10.50;7.70;;;;;;;27.36;63.86;99513.56;4953290;28;20629;-71
2023/07/13 02:32:52;;;;;;;10.27;8.20;;;;;;;27.22;63.64;99504.56;4953943;29;20200;-70
2023/07/13 02:35:18;;;;;;;18.90;9.03;;;;;;;27.22;63.85;99518.19;4953828;29;20746;-69
2023/07/13 02:37:45;;;;;;;9.03;8.17;;;;;;;27.14;64.41;99510.69;4953935;29;20291;-71
2023/07/13 02:40:12;;;;;;;9.20;8.30;;;;;;;27.08;63.91;99518.19;4953368;29;20192;-71
2023/07/13 02:42:38;;;;;;;17.87;7.97;;;;;;;27.05;64.21;99516.06;4953647;29;20720;-71
2023/07/13 02:45:06;;;;;;;11.47;8.43;;;;;;;27.02;64.24;99513.13;4953193;29;20243;-71
2023/07/13 02:47:34;;;;;;;9.20;8.40;;;;;;;26.92;64.09;99508.69;4953489;29;20216;-71
2023/07/13 02:50:01;;;;;;;9.10;8.53;;;;;;;26.91;64.45;99512.50;4953567;29;20258;-71
2023/07/13 02:52:28;;;;;;;15.50;8.50;;;;;;;26.93;64.20;99512.22;4952958;29;20734;-71
2023/07/13 02:54:55;;;;;;;8.90;7.57;;;;;;;26.89;63.83;99519.38;4953334;29;20259;-72
2023/07/13 02:57:21;;;;;;;12.27;9.13;;;;;;;26.93;63.87;99520.38;4953217;29;20262;-70
2023/07/13 02:59:48;;;;;;;15.03;7.77;;;;;;;26.86;63.75;99520.00;4954089;29;20199;-70
2023/07/13 03:02:15;;;;;;;20.97;9.57;;;;;;;26.88;63.87;99524.03;4953417;29;20196;-71
2023/07/13 03:04:43;;;;;;;10.23;8.40;;;;;;;26.90;63.99;99515.56;4953280;29;20192;-70
2023/07/13 03:07:09;;;;;;;12.10;8.50;;;;;;;27.02;62.96;99515.84;4970187;28;20199;-71
2023/07/13 03:09:37;;;;;;;18.40;8.67;;;;;;;27.07;62.53;99519.28;4972939;28;20278;-71
2023/07/13 03:12:04;;;;;;;14.77;9.17;;;;;;;27.03;62.41;99520.22;4963381;28;20700;-71
2023/07/13 03:14:31;;;;;;;9.87;7.80;;;;;;;27.02;62.44;99524.84;4953601;29;20196;-71
2023/07/13 03:16:57;;;;;;;13.80;7.63;;;;;;;27.09;62.24;99530.72;4953307;29;20235;-71
2023/07/13 03:19:24;;;;;;;10.80;8.53;;;;;;;27.18;61.96;99528.06;4953147;29;20663;-72
2023/07/13 03:21:53;;;;;;;15.00;9.10;;;;;;;27.24;62.02;99524.19;4953043;29;20680;-71
2023/07/13 03:24:20;;;;;;;17.23;8.63;;;;;;;27.30;62.10;99525.69;4953340;29;20287;-71
2023/07/13 03:26:47;;;;;;;20.53;8.93;;;;;;;27.38;61.65;99516.78;4952744;29;20198;-70
2023/07/13 03:29:14;;;;;;;21.10;9.23;;;;;;;27.38;62.04;99514.06;4953251;29;20231;-69
2023/07/13 03:31:41;;;;;;;20.90;8.93;;;;;;;27.43;61.63;99513.94;4953443;29;20250;-69
2023/07/13 03:34:07;;;;;;;25.10;9.13;;;;;;;27.45;61.51;99509.81;4952878;29;20216;-71
2023/07/13 03:36:34;;;;;;;22.80;8.70;;;;;;;27.49;61.42;99508.09;4953360;29;20200;-71
2023/07/13 03:39:08;;;;;;;18.17;8.20;;;;;;;27.58;60.48;99510.88;4952913;29;20196;-71
2023/07/13 03:41:35;;;;;;;13.20;8.53;;;;;;;27.56;60.55;99510.41;4953795;28;20683;-71
2023/07/13 03:44:02;;;;;;;23.60;8.70;;;;;;;27.59;59.59;99512.50;4956182;29;20199;-71
2023/07/13 03:46:29;;;;;;;26.63;8.53;;;;;;;27.58;59.48;99516.34;4956871;29;20259;-71
2023/07/13 03:48:55;;;;;;;10.57;7.67;;;;;;;27.61;59.07;99515.75;4957073;29;20286;-70
2023/07/13 03:51:22;;;;;;;13.87;7.80;;;;;;;27.61;59.24;99518.47;4956427;29;20287;-71
2023/07/13 03:53:49;;;;;;;10.17;8.30;;;;;;;27.63;59.06;99519.78;4956206;29;20220;-70
2023/07/13 03:56:19;;;;;;;8.20;7.13;;;;;;;27.73;58.78;99521.47;4956245;29;20192;-71
2023/07/13 03:58:48;;;;;;;8.60;7.93;;;;;;;27.81;58.10;99527.03;4956776;29;20196;-70
2023/07/13 04:01:15;;;;;;;9.87;7.33;;;;;;;27.71;58.19;99523.69;4956845;29;20238;-70
2023/07/13 04:03:43;;;;;;;12.00;7.53;;;;;;;27.70;58.33;99519.34;4955355;29;20196;-70
2023/07/13 04:06:20;;;;;;;26.00;8.40;;;;;;;27.65;58.75;99520.25;4965271;28;20255;-71
2023/07/13 04:08:49;;;;;;;13.77;8.57;;;;;;;27.72;59.01;99531.59;4975651;28;20211;-70
2023/07/13 04:11:18;;;;;;;19.10;8.73;;;;;;;27.81;59.12;99526.22;4975727;28;20188;-71
2023/07/13 04:13:44;;;;;;;18.43;8.43;;;;;;;28.33;57.53;99523.59;4975689;28;20583;-71
2023/07/13 04:16:11;;;;;;;16.47;8.63;;;;;;;29.21;55.18;99533.63;4959145;28;20690;-71
2023/07/13 04:18:38;;;;;;;16.77;7.47;;;;;;;30.13;51.15;99539.59;4955715;29;20195;-71
2023/07/13 04:21:05;;;;;;;19.60;8.53;;;;;;;30.94;49.07;99551.47;4955709;29;20676;-71
2023/07/13 04:23:31;;;;;;;11.30;7.83;;;;;;;31.62;46.30;99549.22;4956326;29;20215;-71
2023/07/13 04:25:58;;;;;;;20.37;7.50;;;;;;;32.29;44.62;99558.13;4955917;29;20200;-71
2023/07/13 04:28:27;;;;;;;23.00;7.90;;;;;;;32.99;42.28;99560.69;4954673;29;20279;-72
2023/07/13 04:30:53;;;;;;;13.93;7.57;;;;;;;33.44;41.06;99570.84;4955865;29;20211;-71
2023/07/13 04:33:22;;;;;;;13.87;6.87;;;;;;;33.89;39.66;99566.00;4955531;29;20196;-71
2023/07/13 04:35:48;;;;;;;9.33;7.10;;;;;;;34.30;38.66;99573.94;4955789;29;20251;-70
2023/07/13 04:38:15;;;;;;;10.03;7.83;;;;;;;34.67;37.78;99576.22;4955258;29;20265;-72
2023/07/13 04:40:43;;;;;;;9.65;6.13;;;;;;;35.50;36.27;99570.53;4955642;29;20676;-72
2023/07/13 04:43:10;;;;;;;7.82;6.78;;;;;;;35.94;35.08;99569.22;4954680;29;20192;-71
2023/07/13 04:45:38;;;;;;;14.27;6.97;;;;;;;36.20;34.61;99577.69;4955750;29;20196;-72
2023/07/13 04:48:06;;;;;;;9.70;7.75;;;;;;;36.39;34.39;99580.50;4955203;29;20275;-72
2023/07/13 04:50:32;;;;;;;9.48;7.50;;;;;;;36.69;34.38;99581.50;4955183;29;20240;-72
2023/07/13 04:52:59;;;;;;;12.65;9.13;;;;;;;36.79;34.12;99578.16;4955318;28;20191;-72
2023/07/13 04:55:30;;;;;;;11.93;7.68;;;;;;;36.71;33.99;99587.50;4955256;29;20633;-72
2023/07/13 04:57:58;;;;;;;13.43;8.60;;;;;;;36.90;33.53;99579.13;4954585;29;20570;-71
2023/07/13 05:00:26;;;;;;;9.48;7.07;;;;;;;36.90;33.53;99584.69;4955028;29;20332;-73
2023/07/13 05:02:55;;;;;;;16.02;7.60;;;;;;;37.66;32.46;99581.69;4954800;29;20200;-71
2023/07/13 05:05:22;;;;;;;14.40;7.53;;;;;;;38.07;31.15;99589.06;4957635;28;20204;-71
2023/07/13 05:07:49;;;;;;;11.68;8.18;;;;;;;38.04;31.47;99589.03;4973746;28;20199;-69
2023/07/13 05:10:16;;;;;;;12.10;8.02;;;;;;;37.91;31.83;99579.25;4971069;28;20769;-70
2023/07/13 05:12:42;;;;;;;35.70;10.20;;;;;;;38.12;31.41;99591.50;4954020;29;20212;-70
2023/07/13 05:15:12;;;;;;;13.18;8.13;;;;;;;38.24;31.52;99590.44;4954871;29;20846;-72
2023/07/13 05:17:40;;;;;;;18.85;9.05;;;;;;;38.16;31.59;99584.03;4954760;29;20192;-76
2023/07/13 05:20:10;;;;;;;22.92;9.27;;;;;;;38.26;31.51;99591.69;4955483;29;20203;-69
2023/07/13 05:22:36;;;;;;;13.02;8.85;;;;;;;38.29;31.49;99590.94;4954009;29;20668;-69
2023/07/13 05:25:06;;;;;;;25.17;8.48;;;;;;;38.18;31.71;99594.75;4955170;29;20192;-70
2023/07/13 05:27:33;;;;;;;9.25;8.43;;;;;;;38.32;31.34;99592.94;4954770;29;20196;-70
2023/07/13 05:30:00;;;;;;;9.52;8.80;;;;;;;38.18;31.69;99584.47;4953756;29;20290;-68
2023/07/13 05:32:27;;;;;;;12.43;8.45;;;;;;;38.30;31.49;99586.19;4954276;29;20228;-68
2023/07/13 05:34:53;;;;;;;11.93;9.23;;;;;;;38.35;31.45;99586.66;4954747;29;20200;-69
2023/07/13 05:37:22;;;;;;;11.82;9.07;;;;;;;38.50;30.70;99591.22;4954270;29;20267;-72
2023/07/13 05:39:49;;;;;;;11.55;8.63;;;;;;;37.78;31.77;99592.56;4953959;29;20199;-69
2023/07/13 05:42:15;;;;;;;12.20;9.00;;;;;;;37.76;32.10;99592.13;4954742;29;20247;-69
2023/07/13 05:44:42;;;;;;;16.00;8.65;;;;;;;37.73;32.60;99586.53;4953205;29;20204;-71
2023/07/13 05:47:09;;;;;;;11.90;8.55;;;;;;;38.15;31.62;99593.53;4952879;29;20271;-69
2023/07/13 05:49:35;;;;;;;16.92;8.60;;;;;;;38.47;30.98;99586.44;4952505;29;20228;-69
2023/07/13 05:52:02;;;;;;;14.85;8.93;;;;;;;38.31;31.10;99587.78;4953238;29;20220;-69
2023/07/13 05:54:30;;;;;;;17.98;8.65;;;;;;;38.64;30.75;99591.41;4953302;29;20672;-71
2023/07/13 05:56:57;;;;;;;10.25;8.40;;;;;;;38.30;31.36;99587.00;4953143;29;20200;-70
2023/07/13 05:59:24;;;;;;;11.85;9.65;;;;;;;38.66;30.34;99594.56;4953614;29;20200;-71
2023/07/13 06:01:52;;;;;;;8.32;7.53;;;;;;;38.47;30.96;99594.78;4953951;29;20247;-70
2023/07/13 06:04:18;;;;;;;9.55;7.88;;;;;;;38.50;31.18;99588.44;4953706;28;20574;-71
2023/07/13 06:06:45;;;;;;;9.80;8.65;;;;;;;38.38;30.77;99588.69;4967361;28;20262;-70
2023/07/13 06:09:12;;;;;;;30.25;9.55;;;;;;;38.64;30.74;99590.59;4972975;28;20239;-71
2023/07/13 06:11:40;;;;;;;11.05;8.73;;;;;;;38.64;30.03;99596.94;4973385;28;20187;-70
2023/07/13 06:14:06;;;;;;;13.90;8.85;;;;;;;38.84;30.26;99606.69;4973745;28;20255;-71
2023/07/13 06:16:33;;;;;;;157.20;19.17;;;;;;;38.84;30.65;99601.16;4973291;28;20234;-70
2023/07/13 06:19:00;;;;;;;12.00;8.68;;;;;;;38.94;29.93;99600.47;4972439;28;20281;-71
2023/07/13 06:21:26;;;;;;;21.60;8.77;;;;;;;39.07;30.08;99599.00;4973034;28;20256;-71
2023/07/13 06:23:53;;;;;;;16.20;8.38;;;;;;;39.23;29.98;99594.00;4972838;28;20230;-70
2023/07/13 06:26:21;;;;;;;14.57;8.65;;;;;;;39.47;28.98;99587.09;4972892;28;20254;-69
2023/07/13 06:28:49;;;;;;;12.07;7.80;;;;;;;39.38;29.35;99587.41;4972671;28;20283;-69
2023/07/13 06:31:16;;;;;;;8.90;7.28;;;;;;;39.72;28.98;99586.06;4973075;28;20195;-70
2023/07/13 06:33:43;;;;;;;11.40;7.70;;;;;;;39.64;28.78;99595.56;4972344;28;20199;-70
2023/07/13 06:36:10;;;;;;;14.20;7.78;;;;;;;39.64;28.67;99583.66;4972850;28;20199;-69
2023/07/13 06:38:37;;;;;;;14.35;8.82;;;;;;;39.89;28.24;99582.63;4972582;28;20199;-71
2023/07/13 06:41:05;;;;;;;14.18;8.75;;;;;;;40.12;28.11;99577.59;4972591;28;20548;-69
2023/07/13 06:43:32;;;;;;;19.52;8.95;;;;;;;39.98;27.97;99573.94;4972810;28;20262;-70
2023/07/13 06:46:00;;;;;;;10.57;8.90;;;;;;;40.07;27.73;99577.16;4973137;28;20195;-69
2023/07/13 06:48:28;;;;;;;15.73;9.15;;;;;;;40.13;28.02;99576.41;4972824;28;20201;-69
2023/07/13 06:50:55;;;;;;;13.18;8.70;;;;;;;40.11;27.56;99573.22;4973206;28;20199;-70
2023/07/13 06:53:22;;;;;;;9.23;8.23;;;;;;;40.11;27.80;99564.88;4972332;28;20191;-70
2023/07/13 06:55:49;;;;;;;9.30;8.25;;;;;;;39.90;28.24;99561.97;4973251;28;20205;-69
2023/07/13 06:58:17;;;;;;;13.57;8.27;;;;;;;40.00;27.54;99569.59;4972316;28;20203;-69
2023/07/13 07:00:44;;;;;;;9.70;7.68;;;;;;;39.73;28.26;99567.41;4972558;28;20199;-70
2023/07/13 07:03:12;;;;;;;10.32;8.27;;;;;;;39.94;28.13;99576.72;4971682;28;20195;-71
2023/07/13 07:05:38;;;;;;;37.90;9.18;;;;;;;40.06;27.73;99573.59;4967569;28;20251;-69
2023/07/13 07:08:06;;;;;;;8.27;7.40;;;;;;;40.10;27.85;99573.63;4953193;29;20211;-70
2023/07/13 07:10:32;;;;;;;8.57;7.80;;;;;;;40.27;27.21;99573.72;4953130;29;20244;-70
2023/07/13 07:12:59;;;;;;;8.32;7.45;;;;;;;40.17;27.53;99582.00;4952929;29;20204;-69
2023/07/13 07:15:26;;;;;;;15.68;7.22;;;;;;;40.37;27.34;99574.94;4952109;29;20676;-69
2023/07/13 07:17:53;;;;;;;29.30;10.05;;;;;;;40.00;27.02;99575.16;4953386;29;20196;-69
2023/07/13 07:20:21;;;;;;;8.57;7.47;;;;;;;39.86;27.67;99568.69;4952261;29;20758;-70
2023/07/13 07:22:48;;;;;;;14.32;8.80;;;;;;;40.12;27.60;99566.47;4951998;29;20243;-68
2023/07/13 07:25:16;;;;;;;9.00;8.20;;;;;;;39.99;26.94;99559.63;4951733;29;20275;-70
2023/07/13 07:27:42;;;;;;;9.68;8.10;;;;;;;39.89;27.98;99563.16;4952209;28;20196;-68
2023/07/13 07:30:10;;;;;;;9.93;8.98;;;;;;;39.65;27.43;99561.00;4952318;29;20231;-66
2023/07/13 07:32:36;;;;;;;9.38;8.55;;;;;;;39.74;27.86;99561.47;4951050;29;20196;-68
2023/07/13 07:35:03;;;;;;;8.60;7.93;;;;;;;39.99;27.37;99568.00;4958480;28;20199;-70
2023/07/13 07:37:31;;;;;;;9.07;8.45;;;;;;;40.00;27.75;99558.44;4960259;28;20661;-67
2023/07/13 07:39:59;;;;;;;10.88;7.88;;;;;;;40.33;27.39;99565.81;4957550;28;20203;-68
2023/07/13 07:42:25;;;;;;;9.02;8.43;;;;;;;40.40;27.69;99555.47;4957994;28;20206;-67
2023/07/13 07:44:52;;;;;;;9.60;8.68;;;;;;;39.78;28.15;99551.19;4952801;29;20243;-68
2023/07/13 07:47:19;;;;;;;9.23;8.73;;;;;;;39.87;27.61;99553.59;4949280;29;20662;-69
2023/07/13 07:49:45;;;;;;;22.77;9.63;;;;;;;39.64;28.52;99545.47;4952662;29;20286;-68
2023/07/13 07:52:12;;;;;;;9.20;8.70;;;;;;;39.49;27.98;99554.13;4952592;28;20212;-67
2023/07/13 07:54:40;;;;;;;8.45;7.95;;;;;;;39.26;28.60;99547.94;4952531;28;20251;-68
2023/07/13 07:57:08;;;;;;;9.55;8.75;;;;;;;39.72;28.43;99547.13;4951098;28;20200;-70
2023/07/13 07:59:34;;;;;;;15.20;8.32;;;;;;;39.64;28.35;99553.81;4953327;28;20204;-68
2023/07/13 08:02:02;;;;;;;8.65;7.95;;;;;;;40.06;27.13;99550.53;4951001;29;20192;-68
2023/07/13 08:04:29;;;;;;;9.07;8.38;;;;;;;40.19;26.84;99549.81;4951252;29;20192;-69
2023/07/13 08:06:57;;;;;;;14.48;8.05;;;;;;;40.09;27.29;99547.75;4956413;28;20204;-68
2023/07/13 08:09:24;;;;;;;11.45;7.88;;;;;;;40.05;27.48;99541.38;4951349;29;20223;-68
2023/07/13 08:11:52;;;;;;;8.60;7.68;;;;;;;40.39;26.26;99541.94;4951305;29;20255;-68
2023/07/13 08:14:19;;;;;;;21.25;8.80;;;;;;;40.41;26.73;99545.13;4952627;29;20562;-68
2023/07/13 08:16:45;;;;;;;12.50;7.95;;;;;;;40.42;26.76;99530.03;4952070;29;20668;-68
2023/07/13 08:19:12;;;;;;;9.82;8.25;;;;;;;40.73;26.40;99529.31;4952911;29;20262;-68
2023/07/13 08:21:39;;;;;;;9.63;7.63;;;;;;;41.02;26.42;99530.19;4951607;29;20247;-67
2023/07/13 08:24:06;;;;;;;13.13;8.57;;;;;;;40.73;26.33;99530.13;4951987;29;20196;-68
2023/07/13 08:26:32;;;;;;;16.80;8.85;;;;;;;40.76;25.77;99529.34;4952456;28;20264;-69
2023/07/13 08:29:02;;;;;;;10.10;7.88;;;;;;;40.75;26.91;99522.13;4963459;28;20187;-68
2023/07/13 08:31:28;;;;;;;8.68;6.78;;;;;;;41.06;26.32;99528.19;4963650;28;20196;-66
2023/07/13 08:33:55;;;;;;;14.65;7.57;;;;;;;41.19;25.99;99530.19;4964488;28;20227;-67
2023/07/13 08:36:22;;;;;;;13.38;6.90;;;;;;;41.20;25.95;99530.97;4962875;28;20251;-68
2023/07/13 08:38:48;;;;;;;8.00;7.15;;;;;;;41.26;25.71;99523.81;4958139;28;20195;-72
2023/07/13 08:41:17;;;;;;;8.50;7.75;;;;;;;40.51;26.27;99517.31;4964192;28;20196;-69
2023/07/13 08:43:48;;;;;;;9.57;8.00;;;;;;;40.79;26.18;99511.78;4954417;28;20255;-69
2023/07/13 08:46:21;;;;;;;12.30;7.85;;;;;;;40.44;26.42;99506.16;4953223;29;20204;-69
2023/07/13 08:48:52;;;;;;;9.02;7.53;;;;;;;39.37;27.39;99502.41;4936332;29;20272;-69
2023/07/13 08:51:31;;;;;;;10.45;8.05;;;;;;;39.49;27.47;99495.72;4936747;29;20244;-69
2023/07/13 08:54:00;;;;;;;8.05;7.65;;;;;;;39.34;27.70;99492.03;4936257;29;20668;-69
2023/07/13 08:56:29;;;;;;;9.15;7.05;;;;;;;39.95;27.04;99494.81;4944577;29;20637;-71
2023/07/13 08:58:59;;;;;;;15.75;8.43;;;;;;;40.45;26.29;99498.56;4950600;29;20227;-71
2023/07/13 09:01:33;;;;;;;13.63;9.13;;;;;;;40.80;25.81;99498.66;4954125;29;20250;-68
2023/07/13 09:04:07;;;;;;;10.05;7.88;;;;;;;41.18;25.90;99505.50;4955089;28;20183;-69
2023/07/13 09:06:50;;;;;;;10.57;7.88;;;;;;;41.49;24.80;99499.09;4955170;28;20187;-70
2023/07/13 09:09:28;;;;;;;11.10;7.78;;;;;;;41.70;24.57;99499.03;4953971;29;20227;-68
2023/07/13 09:12:03;;;;;;;8.43;7.82;;;;;;;41.91;24.12;99493.41;4954941;29;20183;-67
2023/07/13 09:14:46;;;;;;;8.30;7.38;;;;;;;42.25;23.86;99491.69;4955330;29;20188;-68
2023/07/13 09:17:18;;;;;;;11.23;8.55;;;;;;;42.39;23.18;99488.81;4955295;28;20203;-69
2023/07/13 09:19:49;;;;;;;8.32;7.70;;;;;;;42.29;23.20;99486.88;4955195;28;20754;-68
2023/07/13 09:22:21;;;;;;;8.95;6.80;;;;;;;41.11;23.46;99474.81;4955483;29;20184;-68
2023/07/13 09:24:56;;;;;;;10.93;6.80;;;;;;;41.36;23.11;99479.16;4955546;29;20250;-68
2023/07/13 09:27:29;;;;;;;8.00;6.75;;;;;;;41.72;23.86;99479.91;4954628;29;20319;-68
2023/07/13 09:30:04;;;;;;;7.82;6.47;;;;;;;41.96;22.94;99473.47;4955738;29;20212;-69
2023/07/13 09:32:34;;;;;;;7.45;6.10;;;;;;;42.24;22.18;99462.19;4955304;29;20191;-70
2023/07/13 09:35:01;;;;;;;17.15;6.68;;;;;;;41.65;22.96;99466.75;4955172;28;20266;-70
2023/07/13 09:37:33;;;;;;;11.50;6.30;;;;;;;41.51;23.08;99460.44;4954896;29;20200;-69
2023/07/13 09:40:04;;;;;;;8.32;6.05;;;;;;;40.59;23.49;99449.28;4954645;28;20223;-70
2023/07/13 09:42:33;;;;;;;9.75;6.28;;;;;;;40.96;22.81;99448.91;4955009;29;20663;-69
2023/07/13 09:45:02;;;;;;;6.20;5.68;;;;;;;41.40;22.69;99440.91;4954490;29;20196;-69
2023/07/13 09:47:30;;;;;;;13.57;6.30;;;;;;;40.38;23.55;99435.28;4961806;28;20616;-69
2023/07/13 09:49:59;;;;;;;6.30;5.90;;;;;;;40.82;22.61;99432.97;4963361;28;20211;-69
2023/07/13 09:52:28;;;;;;;7.50;6.20;;;;;;;40.66;23.04;99413.06;4954712;29;20192;-69
2023/07/13 09:54:58;;;;;;;7.13;6.45;;;;;;;41.03;23.97;99419.03;4953670;29;20228;-69
2023/07/13 09:57:27;;;;;;;5.97;5.53;;;;;;;41.45;23.24;99429.34;4953718;29;20207;-69
2023/07/13 09:59:56;;;;;;;7.97;6.30;;;;;;;41.66;22.73;99417.31;4953795;28;20684;-70
2023/07/13 10:02:33;;;;;;;6.97;5.95;;;;;;;41.95;21.42;99416.00;4953921;29;20695;-71
2023/07/13 10:05:04;;;;;;;6.47;5.97;;;;;;;42.15;21.34;99417.09;4953450;29;20192;-70
2023/07/13 10:07:31;;;;;;;21.42;6.65;;;;;;;42.39;21.77;99405.00;4960389;28;20247;-70
2023/07/13 10:10:02;;;;;;;6.10;5.53;;;;;;;42.45;20.14;99403.38;4952855;29;20240;-71
2023/07/13 10:12:30;;;;;;;13.85;5.53;;;;;;;42.13;20.56;99405.56;4952801;29;20731;-72
2023/07/13 10:15:01;;;;;;;5.65;5.25;;;;;;;42.35;20.82;99390.25;4952309;29;20934;-69
2023/07/13 10:17:32;;;;;;;5.63;4.97;;;;;;;42.51;19.64;99396.13;4953391;29;20770;-71
2023/07/13 10:20:04;;;;;;;8.95;4.90;;;;;;;42.32;19.71;99394.66;4953541;29;20200;-70
2023/07/13 10:22:40;;;;;;;9.32;4.90;;;;;;;42.30;20.39;99393.50;4952995;29;20196;-70
2023/07/13 10:25:18;;;;;;;9.18;5.25;;;;;;;42.49;20.15;99396.53;4952915;29;20188;-70
2023/07/13 10:27:45;;;;;;;9.02;5.68;;;;;;;42.72;20.83;99390.38;4954133;28;20187;-70
2023/07/13 10:30:18;;;;;;;6.25;5.43;;;;;;;42.89;20.20;99386.63;4962844;28;20639;-72
2023/07/13 10:32:44;;;;;;;5.68;5.10;;;;;;;42.83;19.91;99388.28;4963597;28;20180;-71
2023/07/13 10:35:16;;;;;;;8.27;5.07;;;;;;;42.99;19.61;99388.53;4961601;28;20196;-71
2023/07/13 10:37:50;;;;;;;7.55;5.18;;;;;;;42.94;19.40;99389.00;4962789;28;20184;-70
2023/07/13 10:40:20;;;;;;;5.28;4.45;;;;;;;42.92;19.28;99378.22;4958751;28;20218;-70
2023/07/13 10:42:50;;;;;;;5.90;4.57;;;;;;;42.90;19.03;99382.66;4961830;28;20556;-69
2023/07/13 10:45:21;;;;;;;13.50;5.88;;;;;;;43.06;18.87;99374.53;4959925;28;20188;-71
2023/07/13 10:47:49;;;;;;;9.80;5.07;;;;;;;42.97;19.09;99372.16;4955110;28;20644;-70
2023/07/13 10:50:21;;;;;;;5.72;5.25;;;;;;;42.82;19.15;99370.72;4951394;28;20235;-69
2023/07/13 10:52:50;;;;;;;6.80;4.70;;;;;;;42.43;19.54;99369.44;4952308;29;20192;-74
2023/07/13 10:55:42;;;;;;;8.27;4.90;;;;;;;42.14;19.55;99362.44;4952785;29;20200;-71
2023/07/13 10:58:15;;;;;;;8.18;4.88;;;;;;;42.43;20.62;99363.84;4949485;28;20208;-70
2023/07/13 11:00:49;;;;;;;7.05;4.40;;;;;;;42.01;19.62;99369.72;4932981;29;20222;-70
2023/07/13 11:03:19;;;;;;;5.00;4.60;;;;;;;42.31;19.52;99350.38;4932783;29;20188;-70
2023/07/13 11:05:52;;;;;;;5.28;4.88;;;;;;;41.94;20.40;99353.00;4947012;28;20223;-70
2023/07/13 11:08:32;;;;;;;7.72;4.80;;;;;;;42.30;20.45;99346.00;4965053;28;20226;-69
2023/07/13 11:10:59;;;;;;;5.07;4.57;;;;;;;42.60;20.00;99334.97;4953874;29;20286;-66
2023/07/13 11:14:02;;;;;;;9.90;5.18;;;;;;;42.82;19.52;99336.41;4953088;29;20204;-69
2023/07/13 11:16:37;;;;;;;52.53;8.50;;;;;;;42.60;19.70;99334.97;4951996;29;20271;-71
2023/07/13 11:19:32;;;;;;;23.02;6.18;;;;;;;42.24;19.95;99337.25;4953155;29;20290;-72
2023/07/13 11:22:22;;;;;;;12.55;4.57;;;;;;;42.51;19.55;99345.81;4952287;29;20191;-71
2023/07/13 11:24:51;;;;;;;7.88;4.63;;;;;;;42.58;18.96;99340.19;4934278;29;20244;-71
2023/07/13 11:27:36;;;;;;;5.80;4.15;;;;;;;42.66;19.50;99336.91;4933929;29;20232;-72
2023/07/13 11:30:25;;;;;;;10.00;4.75;;;;;;;42.77;18.97;99334.03;4933110;29;20222;-72
2023/07/13 11:33:05;;;;;;;8.50;4.40;;;;;;;42.44;19.81;99332.72;4941591;29;20275;-72
2023/07/13 11:35:35;;;;;;;4.70;4.35;;;;;;;42.45;18.87;99339.88;4952883;29;20744;-72
2023/07/13 11:38:10;;;;;;;4.65;4.25;;;;;;;42.07;19.17;99324.19;4953096;29;20196;-72